createdAt,value
2023-07-03T00:00:16.425Z,18.33
2023-07-03T00:02:43.954Z,20.17
2023-07-03T00:05:12.533Z,20.63
2023-07-03T00:07:40.718Z,18.73
2023-07-03T00:10:09.274Z,22.77
2023-07-03T00:12:36.188Z,20.90
2023-07-03T00:15:03.597Z,20.90
2023-07-03T00:17:30.474Z,18.53
2023-07-03T00:19:57.397Z,18.33
2023-07-03T00:22:24.744Z,18.33
2023-07-03T00:24:51.596Z,19.17
2023-07-03T00:27:19.620Z,23.67
2023-07-03T00:29:46.640Z,19.57
2023-07-03T00:32:13.549Z,17.50
2023-07-03T00:34:40.506Z,19.97
2023-07-03T00:37:07.867Z,19.23
2023-07-03T00:39:43.912Z,18.53
2023-07-03T00:42:10.755Z,19.07
2023-07-03T00:44:37.537Z,16.90
2023-07-03T00:47:04.870Z,23.80
2023-07-03T00:49:32.896Z,18.57
2023-07-03T00:52:01.653Z,18.23
2023-07-03T00:54:28.978Z,18.13
2023-07-03T00:56:55.824Z,20.97
2023-07-03T00:59:23.273Z,26.80
2023-07-03T01:01:54.196Z,21.13
2023-07-03T01:04:26.764Z,19.90
2023-07-03T01:07:01.512Z,20.77
2023-07-03T01:09:43.401Z,17.83
2023-07-03T01:12:11.244Z,21.60
2023-07-03T01:14:40.766Z,19.90
2023-07-03T01:17:12.736Z,20.43
2023-07-03T01:19:43.202Z,22.23
2023-07-03T01:22:57.834Z,19.93
2023-07-03T01:25:26.762Z,18.07
2023-07-03T01:27:54.379Z,23.73
2023-07-03T01:30:22.470Z,16.10
2023-07-03T01:32:52.176Z,19.67
2023-07-03T01:35:20.335Z,20.67
2023-07-03T01:37:50.916Z,19.97
2023-07-03T01:40:21.797Z,25.70
2023-07-03T01:42:48.962Z,19.33
2023-07-03T01:45:16.470Z,19.13
2023-07-03T01:47:43.483Z,17.87
2023-07-03T01:50:19.396Z,20.03
2023-07-03T01:53:00.049Z,20.77
2023-07-03T01:55:40.838Z,20.80
2023-07-03T01:58:31.034Z,18.37
2023-07-03T02:01:07.927Z,18.03
2023-07-03T02:03:55.297Z,19.63
2023-07-03T02:06:26.545Z,17.00
2023-07-03T02:08:54.453Z,19.07
2023-07-03T02:11:23.644Z,22.97
2023-07-03T02:13:50.948Z,23.33
2023-07-03T02:16:17.854Z,20.47
2023-07-03T02:18:47.095Z,17.20
2023-07-03T02:21:15.323Z,20.10
2023-07-03T02:23:43.661Z,17.50
2023-07-03T02:26:15.200Z,23.10
2023-07-03T02:28:42.586Z,17.50
2023-07-03T02:31:09.526Z,18.37
2023-07-03T02:33:36.441Z,18.57
2023-07-03T02:36:04.863Z,18.57
2023-07-03T02:38:31.736Z,19.60
2023-07-03T02:40:58.510Z,18.87
2023-07-03T02:43:25.490Z,17.37
2023-07-03T02:45:52.474Z,21.83
2023-07-03T02:48:20.321Z,17.23
2023-07-03T02:50:47.163Z,17.93
2023-07-03T02:53:14.448Z,18.43
2023-07-03T02:55:41.290Z,22.53
2023-07-03T02:58:08.134Z,14.10
2023-07-03T03:00:35.041Z,14.37
2023-07-03T03:03:02.117Z,20.67
2023-07-03T03:05:29.052Z,19.37
2023-07-03T03:07:55.877Z,18.53
2023-07-03T03:10:23.757Z,23.40
2023-07-03T03:12:50.607Z,21.33
2023-07-03T03:15:19.370Z,20.50
2023-07-03T03:17:46.508Z,17.20
2023-07-03T03:20:15.151Z,25.80
2023-07-03T03:22:42.178Z,20.90
2023-07-03T03:25:09.304Z,26.00
2023-07-03T03:27:36.182Z,20.50
2023-07-03T03:30:03.153Z,21.77
2023-07-03T03:32:30.123Z,24.87
2023-07-03T03:34:57.268Z,20.60
2023-07-03T03:37:24.159Z,22.43
2023-07-03T03:39:51.236Z,21.47
2023-07-03T03:42:18.049Z,20.50
2023-07-03T03:44:44.872Z,19.23
2023-07-03T03:47:11.925Z,17.83
2023-07-03T03:49:40.555Z,22.53
2023-07-03T03:52:08.422Z,20.67
2023-07-03T03:54:35.461Z,20.37
2023-07-03T03:57:02.311Z,20.70
2023-07-03T03:59:29.069Z,18.47
2023-07-03T04:01:55.963Z,19.90
2023-07-03T04:04:22.927Z,16.87
2023-07-03T04:06:50.093Z,22.80
2023-07-03T04:09:16.902Z,19.80
2023-07-03T04:11:43.758Z,23.60
2023-07-03T04:14:10.589Z,31.63
2023-07-03T04:16:37.882Z,22.93
2023-07-03T04:19:04.770Z,18.00
2023-07-03T04:21:31.664Z,20.63
2023-07-03T04:23:58.585Z,21.13
2023-07-03T04:26:25.393Z,17.70
2023-07-03T04:28:52.309Z,19.07
2023-07-03T04:31:19.194Z,20.47
2023-07-03T04:33:46.914Z,20.47
2023-07-03T04:36:14.235Z,20.33
2023-07-03T04:38:43.209Z,19.53
2023-07-03T04:41:10.463Z,18.10
2023-07-03T04:43:37.369Z,19.17
2023-07-03T04:46:05.133Z,19.03
2023-07-03T04:48:32.673Z,19.27
2023-07-03T04:51:00.106Z,23.47
2023-07-03T04:53:27.210Z,19.83
2023-07-03T04:55:54.429Z,21.77
2023-07-03T04:58:22.859Z,18.43
2023-07-03T05:00:50.118Z,20.67
2023-07-03T05:03:17.411Z,20.97
2023-07-03T05:05:44.454Z,20.90
2023-07-03T05:08:11.445Z,18.77
2023-07-03T05:10:38.300Z,16.43
2023-07-03T05:13:05.269Z,20.37
2023-07-03T05:15:32.552Z,16.27
2023-07-03T05:17:59.629Z,22.57
2023-07-03T05:20:27.336Z,19.03
2023-07-03T05:22:54.583Z,18.37
2023-07-03T05:25:21.533Z,19.27
2023-07-03T05:27:49.485Z,20.10
2023-07-03T05:30:16.512Z,25.20
2023-07-03T05:32:43.627Z,20.93
2023-07-03T05:35:11.880Z,38.10
2023-07-03T05:37:38.911Z,27.10
2023-07-03T05:40:08.376Z,24.27
2023-07-03T05:42:36.384Z,20.03
2023-07-03T05:45:04.763Z,22.37
2023-07-03T05:47:31.778Z,23.40
2023-07-03T05:49:59.009Z,17.17
2023-07-03T05:52:26.385Z,22.00
2023-07-03T05:54:53.407Z,21.43
2023-07-03T05:57:20.350Z,21.00
2023-07-03T05:59:48.817Z,20.13
2023-07-03T06:02:16.663Z,24.77
2023-07-03T06:04:43.563Z,17.40
2023-07-03T06:07:11.170Z,19.00
2023-07-03T06:09:38.827Z,16.70
2023-07-03T06:12:06.298Z,17.80
2023-07-03T06:14:35.337Z,18.17
2023-07-03T06:17:02.806Z,19.77
2023-07-03T06:19:30.634Z,16.60
2023-07-03T06:21:58.060Z,18.33
2023-07-03T06:24:25.354Z,22.07
2023-07-03T06:26:53.649Z,19.67
2023-07-03T06:29:21.066Z,19.27
2023-07-03T06:31:48.716Z,20.13
2023-07-03T06:34:16.277Z,20.03
2023-07-03T06:36:43.327Z,16.20
2023-07-03T06:39:10.799Z,15.67
2023-07-03T06:41:37.953Z,15.50
2023-07-03T06:44:06.330Z,16.50
2023-07-03T06:46:34.637Z,21.23
2023-07-03T06:49:01.730Z,19.63
2023-07-03T06:51:28.566Z,17.37
2023-07-03T06:53:55.454Z,14.23
2023-07-03T06:56:22.378Z,18.57
2023-07-03T06:58:50.263Z,17.10
2023-07-03T07:01:19.335Z,22.10
2023-07-03T07:03:46.852Z,15.50
2023-07-03T07:06:25.742Z,17.77
2023-07-03T07:08:53.125Z,18.03
2023-07-03T07:11:23.168Z,17.67
2023-07-03T07:13:52.252Z,16.07
2023-07-03T07:16:23.109Z,16.77
2023-07-03T07:18:53.026Z,13.67
2023-07-03T07:21:20.192Z,15.50
2023-07-03T07:23:57.219Z,19.10
2023-07-03T07:26:28.488Z,15.63
2023-07-03T07:28:56.158Z,17.30
2023-07-03T07:31:28.209Z,16.93
2023-07-03T07:33:55.705Z,16.90
2023-07-03T07:36:26.218Z,18.93
2023-07-03T07:38:56.569Z,14.83
2023-07-03T07:41:26.616Z,18.37
2023-07-03T07:43:55.169Z,15.43
2023-07-03T07:46:26.650Z,15.70
2023-07-03T07:48:54.020Z,16.93
2023-07-03T07:51:20.974Z,15.77
2023-07-03T07:53:47.836Z,14.93
2023-07-03T07:56:17.993Z,15.60
2023-07-03T07:58:44.844Z,12.83
2023-07-03T08:01:13.266Z,17.60
2023-07-03T08:03:40.985Z,12.10
2023-07-03T08:06:09.501Z,13.93
2023-07-03T08:08:37.937Z,11.73
2023-07-03T08:11:11.502Z,13.40
2023-07-03T08:13:40.444Z,12.10
2023-07-03T08:16:08.266Z,13.43
2023-07-03T08:18:35.219Z,15.10
2023-07-03T08:21:02.612Z,13.57
2023-07-03T08:23:31.168Z,11.53
2023-07-03T08:26:00.298Z,11.57
2023-07-03T08:28:27.848Z,18.13
2023-07-03T08:30:54.977Z,12.33
2023-07-03T08:33:21.972Z,10.80
2023-07-03T08:38:18.935Z,12.50
2023-07-03T08:40:46.046Z,12.47
2023-07-03T08:43:17.540Z,10.50
2023-07-03T08:45:47.724Z,13.23
2023-07-03T08:48:36.092Z,12.07
2023-07-03T08:51:07.885Z,9.80
2023-07-03T08:53:40.997Z,12.20
2023-07-03T08:56:18.799Z,9.50
2023-07-03T08:58:46.267Z,11.90
2023-07-03T09:01:47.433Z,11.03
2023-07-03T09:04:26.588Z,11.63
2023-07-03T09:07:06.834Z,9.83
2023-07-03T09:09:36.937Z,9.93
2023-07-03T09:12:08.338Z,12.23
2023-07-03T09:14:44.814Z,11.53
2023-07-03T09:17:13.526Z,9.90
2023-07-03T09:19:48.254Z,11.17
2023-07-03T09:22:33.654Z,9.30
2023-07-03T09:25:04.943Z,8.07
2023-07-03T09:27:32.685Z,12.90
2023-07-03T09:30:04.275Z,10.73
2023-07-03T09:32:32.846Z,11.27
2023-07-03T09:35:02.859Z,9.13
2023-07-03T09:37:30.022Z,10.23
2023-07-03T09:39:57.300Z,9.97
2023-07-03T09:42:24.605Z,10.20
2023-07-03T09:44:51.915Z,12.00
2023-07-03T09:47:23.545Z,11.07
2023-07-03T09:49:51.102Z,8.60
2023-07-03T09:52:20.164Z,7.60
2023-07-03T09:54:48.649Z,9.57
2023-07-03T09:57:27.247Z,9.97
2023-07-03T10:00:20.060Z,10.57
2023-07-03T10:07:50.162Z,10.93
2023-07-03T10:13:03.656Z,12.73
2023-07-03T10:15:38.640Z,8.93
2023-07-03T10:18:15.037Z,8.93
2023-07-03T10:20:45.545Z,10.10
2023-07-03T10:23:19.299Z,7.13
2023-07-03T10:26:06.761Z,8.37
2023-07-03T10:28:40.499Z,8.80
2023-07-03T10:31:12.704Z,14.50
2023-07-03T10:33:45.864Z,10.13
2023-07-03T10:36:19.937Z,12.90
2023-07-03T10:39:00.985Z,11.10
2023-07-03T10:41:41.617Z,8.40
2023-07-03T10:44:17.657Z,8.47
2023-07-03T10:46:51.690Z,13.47
2023-07-03T10:49:39.142Z,9.97
2023-07-03T10:52:31.159Z,10.10
2023-07-03T10:55:34.790Z,8.83
2023-07-03T10:58:11.181Z,8.50
2023-07-03T11:01:23.304Z,7.03
2023-07-03T11:04:25.995Z,8.30
2023-07-03T11:07:05.211Z,10.93
2023-07-03T11:09:36.166Z,8.23
2023-07-03T11:12:22.250Z,10.40
2023-07-03T11:15:16.898Z,8.87
2023-07-03T11:24:34.420Z,11.67
2023-07-03T11:29:43.209Z,8.03
2023-07-03T11:32:11.070Z,11.27
2023-07-03T11:40:39.156Z,12.13
2023-07-03T11:43:27.838Z,10.00
2023-07-03T11:45:58.037Z,9.33
2023-07-03T11:48:32.698Z,8.80
2023-07-03T11:51:15.248Z,8.90
2023-07-03T11:53:50.937Z,9.50
2023-07-03T11:56:43.186Z,9.83
2023-07-03T11:59:32.351Z,9.57
2023-07-03T12:02:11.803Z,8.77
2023-07-03T12:04:48.864Z,9.53
2023-07-03T12:07:20.100Z,11.23
2023-07-03T12:09:48.690Z,8.10
2023-07-03T12:12:22.022Z,7.73
2023-07-03T12:15:03.274Z,14.00
2023-07-03T12:17:38.131Z,7.40
2023-07-03T12:20:14.695Z,8.40
2023-07-03T12:22:46.317Z,10.73
2023-07-03T12:25:22.863Z,11.77
2023-07-03T12:27:52.150Z,12.73
2023-07-03T12:30:25.863Z,7.70
2023-07-03T12:32:54.862Z,7.13
2023-07-03T12:35:32.533Z,11.93
2023-07-03T12:38:18.388Z,11.47
2023-07-03T12:40:47.603Z,14.13
2023-07-03T12:43:19.811Z,8.60
2023-07-03T12:45:55.596Z,14.00
2023-07-03T12:48:27.933Z,8.37
2023-07-03T12:50:57.749Z,9.37
2023-07-03T12:53:30.753Z,11.30
2023-07-03T12:56:03.523Z,9.40
2023-07-03T12:58:31.396Z,9.50
2023-07-03T13:01:07.872Z,13.57
2023-07-03T13:28:24.181Z,9.90
2023-07-03T13:31:42.736Z,7.70
2023-07-03T13:34:22.152Z,13.43
2023-07-03T13:36:58.721Z,10.43
2023-07-03T13:39:27.511Z,8.67
2023-07-03T13:41:57.463Z,9.90
2023-07-03T13:44:26.131Z,9.17
2023-07-03T13:46:56.785Z,8.23
2023-07-03T13:49:23.843Z,8.77
2023-07-03T13:51:52.652Z,8.90
2023-07-03T13:54:20.461Z,11.03
2023-07-03T13:56:47.507Z,8.50
2023-07-03T13:59:14.795Z,9.20
2023-07-03T14:01:45.085Z,12.10
2023-07-03T14:04:13.307Z,8.50
2023-07-03T14:06:41.458Z,9.60
2023-07-03T14:09:12.740Z,10.40
2023-07-03T14:11:43.052Z,13.90
2023-07-03T14:14:12.281Z,8.87
2023-07-03T14:16:39.495Z,10.30
2023-07-03T14:19:07.735Z,7.60
2023-07-03T14:21:35.784Z,6.73
2023-07-03T14:24:02.738Z,8.00
2023-07-03T14:26:30.597Z,8.40
2023-07-03T14:28:58.137Z,8.90
2023-07-03T14:31:50.794Z,8.90
2023-07-03T14:34:21.356Z,11.70
2023-07-03T14:36:48.614Z,7.97
2023-07-03T14:39:15.941Z,9.50
2023-07-03T14:41:43.359Z,9.77
2023-07-03T14:44:10.584Z,8.97
2023-07-03T14:46:37.856Z,11.40
2023-07-03T14:49:05.360Z,9.00
2023-07-03T14:51:32.962Z,9.37
2023-07-03T14:53:59.883Z,10.17
2023-07-03T14:56:27.292Z,10.23
2023-07-03T14:58:54.882Z,11.80
2023-07-03T15:01:22.166Z,10.97
2023-07-03T15:03:49.236Z,11.03
2023-07-03T15:06:16.387Z,12.83
2023-07-03T15:08:43.586Z,7.67
2023-07-03T15:11:19.645Z,11.10
2023-07-03T15:13:47.784Z,6.40
2023-07-03T15:16:16.173Z,8.83
2023-07-03T15:18:43.525Z,8.87
2023-07-03T15:21:10.621Z,6.93
2023-07-03T15:23:37.717Z,9.23
2023-07-03T15:26:08.690Z,12.10
2023-07-03T15:28:45.650Z,11.47
2023-07-03T15:31:14.051Z,8.07
2023-07-03T15:34:06.120Z,10.60
2023-07-03T15:36:47.875Z,9.90
2023-07-03T15:39:14.962Z,12.47
2023-07-03T15:41:42.092Z,7.50
2023-07-03T15:44:16.292Z,14.13
2023-07-03T15:49:31.296Z,11.10
2023-07-03T15:51:59.596Z,9.40
2023-07-03T15:54:26.708Z,9.13
2023-07-03T15:56:54.675Z,10.63
2023-07-03T15:59:21.618Z,8.17
2023-07-03T16:01:50.701Z,9.43
2023-07-03T16:04:17.633Z,9.30
2023-07-03T16:06:44.667Z,9.80
2023-07-03T16:09:11.558Z,10.50
2023-07-03T16:11:38.628Z,10.10
2023-07-03T16:14:05.736Z,9.90
2023-07-03T16:16:32.919Z,8.93
2023-07-03T16:19:01.692Z,8.70
2023-07-03T16:21:34.759Z,8.10
2023-07-03T16:24:04.172Z,9.70
2023-07-03T16:26:32.637Z,7.00
2023-07-03T16:28:59.942Z,11.97
2023-07-03T16:31:31.287Z,8.23
2023-07-03T16:34:00.858Z,6.97
2023-07-03T16:36:30.966Z,6.93
2023-07-03T16:39:06.286Z,8.90
2023-07-03T16:41:39.725Z,9.03
2023-07-03T16:44:07.131Z,9.97
2023-07-03T16:46:37.007Z,6.17
2023-07-03T16:49:13.785Z,7.73
2023-07-03T16:51:40.928Z,10.47
2023-07-03T16:54:08.375Z,9.57
2023-07-03T16:56:36.278Z,8.87
2023-07-03T16:59:03.721Z,7.80
2023-07-03T17:01:31.748Z,8.13
2023-07-03T17:03:59.204Z,6.80
2023-07-03T17:06:32.592Z,6.43
2023-07-03T17:09:06.604Z,10.03
2023-07-03T17:11:35.140Z,9.03
2023-07-03T17:14:02.522Z,6.27
2023-07-03T17:16:30.244Z,10.20
2023-07-03T17:18:57.673Z,5.00
2023-07-03T17:21:24.928Z,8.20
2023-07-03T17:23:59.051Z,7.43
2023-07-03T17:26:26.513Z,7.07
2023-07-03T17:28:53.664Z,6.63
2023-07-03T17:31:25.015Z,7.00
2023-07-03T17:33:55.804Z,7.20
2023-07-03T17:36:25.033Z,7.13
2023-07-03T17:38:53.008Z,8.27
2023-07-03T17:41:25.439Z,6.33
2023-07-03T17:43:52.758Z,8.40
2023-07-03T17:46:19.912Z,6.10
2023-07-03T17:48:47.192Z,5.83
2023-07-03T17:51:14.315Z,8.33
2023-07-03T17:53:41.941Z,6.20
2023-07-03T17:56:09.207Z,7.40
2023-07-03T17:58:36.379Z,7.60
2023-07-03T18:01:03.981Z,10.70
2023-07-03T18:03:34.989Z,6.50
2023-07-03T18:06:02.530Z,5.33
